This is the latest recevied weather packets stored in our database for station/object KN6ETB-1. If no packets are shown the sender has not sent any weather packets the latest 10 day(s).
| Time | Temp. | Humidity | Pressure | Rain* | Wind** | Luminosity | Snow |
|---|---|---|---|---|---|---|---|
| 1777994074 | 12.78° C | 92% | 1011.8 hPa | 0 mm | - | 92 W/m² | - |
| 1777993772 | 12.78° C | 92% | 1012.2 hPa | 0 mm | - | 62 W/m² | - |
| 1777993468 | 12.78° C | 93% | 1011.9 hPa | 0 mm | - | 61 W/m² | - |
| 1777993168 | 12.78° C | 93% | 1011.6 hPa | 0 mm | - | 64 W/m² | - |
| 1777992866 | 12.78° C | 93% | 1011.7 hPa | 0 mm | - | 61 W/m² | - |
| 1777992564 | 12.78° C | 93% | 1011.8 hPa | 0 mm | - | 43 W/m² | - |
| 1777992262 | 12.78° C | 93% | 1011.7 hPa | 0 mm | - | 31 W/m² | - |
| 1777991959 | 12.78° C | 93% | 1011.7 hPa | 0 mm | - | 28 W/m² | - |
| 1777991656 | 12.22° C | 93% | 1011.6 hPa | 0 mm | - | 31 W/m² | - |
| 1777991353 | 12.22° C | 93% | 1011.4 hPa | 0 mm | - | 28 W/m² | - |
| 1777991051 | 12.22° C | 94% | 1011.6 hPa | 0 mm | - | 29 W/m² | - |
| 1777990748 | 12.22° C | 94% | 1011.6 hPa | 0 mm | - | 32 W/m² | - |
| 1777990445 | 12.22° C | 94% | 1011.4 hPa | 0 mm | - | 27 W/m² | - |
| 1777989838 | 12.22° C | 94% | 1011.4 hPa | 0 mm | - | 20 W/m² | - |
| 1777989535 | 12.22° C | 94% | 1011.2 hPa | 0 mm | - | 14 W/m² | - |
| 1777989231 | 11.67° C | 94% | 1011.2 hPa | 0 mm | - | 11 W/m² | - |
| 1777988927 | 11.67° C | 94% | 1011.3 hPa | 0 mm | - | 8 W/m² | - |
| 1777988625 | 11.67° C | 95% | 1011 hPa | 0 mm | - | 9 W/m² | - |
| 1777988321 | 11.67° C | 95% | 1011.1 hPa | 0 mm | - | 8 W/m² | - |
| 1777988018 | 11.67° C | 95% | 1011.1 hPa | 0 mm | - | 5 W/m² | - |
| 1777987713 | 11.67° C | 95% | 1011.2 hPa | 0 mm | - | 3 W/m² | - |
| 1777987411 | 11.67° C | 95% | 1011.2 hPa | 0 mm | - | 2 W/m² | - |
| 1777987108 | 11.67° C | 95% | 1011.1 hPa | 0 mm | - | 1 W/m² | - |
| 1777986806 | 11.67° C | 95% | 1011.1 hPa | 0 mm | - | 0 W/m² | - |
| 1777986503 | 11.67° C | 95% | 1010.8 hPa | 0 mm | - | 0 W/m² | - |
* Rain latest hour (hover to see other rain measurements)
** Current wind speed in m/s (hover to see current wind gust speed)